sensor_id;sensor_type;location;lat;lon;timestamp;temperature;humidity
5059;DHT22;2548;52.050;11.036;2022-11-15T00:01:34;4.70;99.90
5059;DHT22;2548;52.050;11.036;2022-11-15T00:04:21;4.70;99.90
5059;DHT22;2548;52.050;11.036;2022-11-15T00:07:09;4.80;99.90
5059;DHT22;2548;52.050;11.036;2022-11-15T00:09:55;4.80;99.90
5059;DHT22;2548;52.050;11.036;2022-11-15T00:12:41;4.70;99.90
5059;DHT22;2548;52.050;11.036;2022-11-15T00:15:27;4.70;99.90
5059;DHT22;2548;52.050;11.036;2022-11-15T00:18:14;4.70;99.90
5059;DHT22;2548;52.050;11.036;2022-11-15T00:21:04;4.70;99.90
5059;DHT22;2548;52.050;11.036;2022-11-15T00:23:52;4.60;99.90
5059;DHT22;2548;52.050;11.036;2022-11-15T00:26:38;4.60;99.90
5059;DHT22;2548;52.050;11.036;2022-11-15T00:29:24;4.60;99.90
5059;DHT22;2548;52.050;11.036;2022-11-15T00:32:10;4.70;99.90
5059;DHT22;2548;52.050;11.036;2022-11-15T00:34:56;4.60;99.90
5059;DHT22;2548;52.050;11.036;2022-11-15T00:37:42;4.60;99.90
5059;DHT22;2548;52.050;11.036;2022-11-15T00:40:29;4.70;99.90
5059;DHT22;2548;52.050;11.036;2022-11-15T00:43:15;4.70;99.90
5059;DHT22;2548;52.050;11.036;2022-11-15T00:46:02;4.80;99.90
5059;DHT22;2548;52.050;11.036;2022-11-15T00:48:47;4.80;99.90
5059;DHT22;2548;52.050;11.036;2022-11-15T00:51:34;4.80;99.90
5059;DHT22;2548;52.050;11.036;2022-11-15T00:54:19;4.70;99.90
5059;DHT22;2548;52.050;11.036;2022-11-15T00:57:07;4.80;99.90
5059;DHT22;2548;52.050;11.036;2022-11-15T00:59:53;4.70;99.90
5059;DHT22;2548;52.050;11.036;2022-11-15T01:02:39;4.80;99.90
5059;DHT22;2548;52.050;11.036;2022-11-15T01:05:25;4.80;99.90
5059;DHT22;2548;52.050;11.036;2022-11-15T01:08:13;4.90;99.90
5059;DHT22;2548;52.050;11.036;2022-11-15T01:11:03;4.90;99.90
5059;DHT22;2548;52.050;11.036;2022-11-15T01:13:51;4.90;99.90
5059;DHT22;2548;52.050;11.036;2022-11-15T01:16:37;5.00;99.90
5059;DHT22;2548;52.050;11.036;2022-11-15T01:19:23;5.00;99.90
5059;DHT22;2548;52.050;11.036;2022-11-15T01:22:08;5.10;99.90
5059;DHT22;2548;52.050;11.036;2022-11-15T01:24:54;5.10;99.90
5059;DHT22;2548;52.050;11.036;2022-11-15T01:27:41;5.10;99.90
5059;DHT22;2548;52.050;11.036;2022-11-15T01:30:28;5.10;99.90
5059;DHT22;2548;52.050;11.036;2022-11-15T01:33:14;5.10;99.90
5059;DHT22;2548;52.050;11.036;2022-11-15T01:36:03;5.10;99.90
5059;DHT22;2548;52.050;11.036;2022-11-15T01:38:53;5.10;99.90
5059;DHT22;2548;52.050;11.036;2022-11-15T01:41:39;5.00;99.90
5059;DHT22;2548;52.050;11.036;2022-11-15T01:44:39;5.00;99.90
5059;DHT22;2548;52.050;11.036;2022-11-15T01:47:30;5.00;99.90
5059;DHT22;2548;52.050;11.036;2022-11-15T01:50:19;5.10;99.90
5059;DHT22;2548;52.050;11.036;2022-11-15T01:53:06;5.00;99.90
5059;DHT22;2548;52.050;11.036;2022-11-15T01:55:53;5.00;99.90
5059;DHT22;2548;52.050;11.036;2022-11-15T01:58:41;5.00;99.90
5059;DHT22;2548;52.050;11.036;2022-11-15T02:01:28;5.00;99.90
5059;DHT22;2548;52.050;11.036;2022-11-15T02:04:20;5.10;99.90
5059;DHT22;2548;52.050;11.036;2022-11-15T02:07:10;5.00;99.90
5059;DHT22;2548;52.050;11.036;2022-11-15T02:09:58;5.00;99.90
5059;DHT22;2548;52.050;11.036;2022-11-15T02:12:47;4.90;99.90
5059;DHT22;2548;52.050;11.036;2022-11-15T02:15:38;4.80;99.90
5059;DHT22;2548;52.050;11.036;2022-11-15T02:18:30;4.80;99.90
5059;DHT22;2548;52.050;11.036;2022-11-15T02:21:24;4.70;99.90
5059;DHT22;2548;52.050;11.036;2022-11-15T02:28:23;4.80;99.90
5059;DHT22;2548;52.050;11.036;2022-11-15T02:31:19;4.80;99.90
5059;DHT22;2548;52.050;11.036;2022-11-15T02:34:09;4.80;99.90
5059;DHT22;2548;52.050;11.036;2022-11-15T02:37:06;4.80;99.90
5059;DHT22;2548;52.050;11.036;2022-11-15T02:39:58;4.90;99.90
5059;DHT22;2548;52.050;11.036;2022-11-15T02:42:51;4.90;99.90
5059;DHT22;2548;52.050;11.036;2022-11-15T02:46:01;4.90;99.90
5059;DHT22;2548;52.050;11.036;2022-11-15T02:48:50;4.80;99.90
5059;DHT22;2548;52.050;11.036;2022-11-15T02:51:37;4.80;99.90
5059;DHT22;2548;52.050;11.036;2022-11-15T02:54:24;4.80;99.90
5059;DHT22;2548;52.050;11.036;2022-11-15T02:57:14;4.80;99.90
5059;DHT22;2548;52.050;11.036;2022-11-15T03:00:05;4.80;99.90
5059;DHT22;2548;52.050;11.036;2022-11-15T03:03:13;4.80;99.90
5059;DHT22;2548;52.050;11.036;2022-11-15T03:06:10;4.80;99.90
5059;DHT22;2548;52.050;11.036;2022-11-15T03:09:04;4.80;99.90
5059;DHT22;2548;52.050;11.036;2022-11-15T03:11:57;4.70;99.90
5059;DHT22;2548;52.050;11.036;2022-11-15T03:14:50;4.70;99.90
5059;DHT22;2548;52.050;11.036;2022-11-15T03:17:42;4.70;99.90
5059;DHT22;2548;52.050;11.036;2022-11-15T03:20:29;4.60;99.90
5059;DHT22;2548;52.050;11.036;2022-11-15T03:23:17;4.60;99.90
5059;DHT22;2548;52.050;11.036;2022-11-15T03:26:06;4.60;99.90
5059;DHT22;2548;52.050;11.036;2022-11-15T03:28:55;4.60;99.90
5059;DHT22;2548;52.050;11.036;2022-11-15T03:31:44;4.60;99.90
5059;DHT22;2548;52.050;11.036;2022-11-15T03:34:38;4.60;99.90
5059;DHT22;2548;52.050;11.036;2022-11-15T03:37:30;4.60;99.90
5059;DHT22;2548;52.050;11.036;2022-11-15T03:40:24;4.70;99.90
5059;DHT22;2548;52.050;11.036;2022-11-15T03:43:16;4.70;99.90
5059;DHT22;2548;52.050;11.036;2022-11-15T03:46:10;4.70;99.90
5059;DHT22;2548;52.050;11.036;2022-11-15T03:49:03;4.70;99.90
5059;DHT22;2548;52.050;11.036;2022-11-15T03:51:50;4.70;99.90
5059;DHT22;2548;52.050;11.036;2022-11-15T03:54:36;4.60;99.90
5059;DHT22;2548;52.050;11.036;2022-11-15T03:57:23;4.60;99.90
5059;DHT22;2548;52.050;11.036;2022-11-15T04:00:10;4.60;99.90
5059;DHT22;2548;52.050;11.036;2022-11-15T04:02:56;4.60;99.90
5059;DHT22;2548;52.050;11.036;2022-11-15T04:05:42;4.60;99.90
5059;DHT22;2548;52.050;11.036;2022-11-15T04:08:28;4.50;99.90
5059;DHT22;2548;52.050;11.036;2022-11-15T04:11:14;4.50;99.90
5059;DHT22;2548;52.050;11.036;2022-11-15T04:14:02;4.40;99.90
5059;DHT22;2548;52.050;11.036;2022-11-15T04:16:48;4.40;99.90
5059;DHT22;2548;52.050;11.036;2022-11-15T04:19:34;4.30;99.90
5059;DHT22;2548;52.050;11.036;2022-11-15T04:22:37;4.30;99.90
5059;DHT22;2548;52.050;11.036;2022-11-15T04:25:41;4.40;99.90
5059;DHT22;2548;52.050;11.036;2022-11-15T04:28:28;4.40;99.90
5059;DHT22;2548;52.050;11.036;2022-11-15T04:31:15;4.30;99.90
5059;DHT22;2548;52.050;11.036;2022-11-15T04:34:00;4.30;99.90
5059;DHT22;2548;52.050;11.036;2022-11-15T04:36:46;4.30;99.90
5059;DHT22;2548;52.050;11.036;2022-11-15T04:39:50;4.30;99.90
5059;DHT22;2548;52.050;11.036;2022-11-15T04:42:36;4.20;99.90
5059;DHT22;2548;52.050;11.036;2022-11-15T04:45:22;4.30;99.90
5059;DHT22;2548;52.050;11.036;2022-11-15T04:48:10;4.20;99.90
5059;DHT22;2548;52.050;11.036;2022-11-15T04:50:55;4.20;99.90
5059;DHT22;2548;52.050;11.036;2022-11-15T04:53:42;4.20;99.90
5059;DHT22;2548;52.050;11.036;2022-11-15T04:56:27;4.20;99.90
5059;DHT22;2548;52.050;11.036;2022-11-15T04:59:14;4.30;99.90
5059;DHT22;2548;52.050;11.036;2022-11-15T05:02:00;4.30;99.90
5059;DHT22;2548;52.050;11.036;2022-11-15T05:04:47;4.30;99.90
5059;DHT22;2548;52.050;11.036;2022-11-15T05:07:32;4.30;99.90
5059;DHT22;2548;52.050;11.036;2022-11-15T05:10:18;4.30;99.90
5059;DHT22;2548;52.050;11.036;2022-11-15T05:13:04;4.30;99.90
5059;DHT22;2548;52.050;11.036;2022-11-15T05:15:50;4.30;99.90
5059;DHT22;2548;52.050;11.036;2022-11-15T05:18:36;4.30;99.90
5059;DHT22;2548;52.050;11.036;2022-11-15T05:21:26;4.30;99.90
5059;DHT22;2548;52.050;11.036;2022-11-15T05:24:12;4.40;99.90
5059;DHT22;2548;52.050;11.036;2022-11-15T05:26:58;4.40;99.90
5059;DHT22;2548;52.050;11.036;2022-11-15T05:29:44;4.50;99.90
5059;DHT22;2548;52.050;11.036;2022-11-15T05:32:31;4.50;99.90
5059;DHT22;2548;52.050;11.036;2022-11-15T05:35:25;4.50;99.90
5059;DHT22;2548;52.050;11.036;2022-11-15T05:38:14;4.60;99.90
5059;DHT22;2548;52.050;11.036;2022-11-15T05:41:01;4.50;99.90
5059;DHT22;2548;52.050;11.036;2022-11-15T05:43:48;4.50;99.90
5059;DHT22;2548;52.050;11.036;2022-11-15T05:46:37;4.40;99.90
5059;DHT22;2548;52.050;11.036;2022-11-15T05:49:28;4.40;99.90
5059;DHT22;2548;52.050;11.036;2022-11-15T05:52:17;4.40;99.90
5059;DHT22;2548;52.050;11.036;2022-11-15T05:55:07;4.40;99.90
5059;DHT22;2548;52.050;11.036;2022-11-15T05:57:54;4.50;99.90
5059;DHT22;2548;52.050;11.036;2022-11-15T06:00:40;4.50;99.90
5059;DHT22;2548;52.050;11.036;2022-11-15T06:03:27;4.50;99.90
5059;DHT22;2548;52.050;11.036;2022-11-15T06:06:13;4.50;99.90
5059;DHT22;2548;52.050;11.036;2022-11-15T06:09:00;4.50;99.90
5059;DHT22;2548;52.050;11.036;2022-11-15T06:11:47;4.50;99.90
5059;DHT22;2548;52.050;11.036;2022-11-15T06:14:33;4.50;99.90
5059;DHT22;2548;52.050;11.036;2022-11-15T06:17:19;4.50;99.90
5059;DHT22;2548;52.050;11.036;2022-11-15T06:20:06;4.50;99.90
5059;DHT22;2548;52.050;11.036;2022-11-15T06:22:56;4.50;99.90
5059;DHT22;2548;52.050;11.036;2022-11-15T06:25:42;4.50;99.90
5059;DHT22;2548;52.050;11.036;2022-11-15T06:28:30;4.40;99.90
5059;DHT22;2548;52.050;11.036;2022-11-15T06:31:16;4.40;99.90
5059;DHT22;2548;52.050;11.036;2022-11-15T06:34:02;4.40;99.90
5059;DHT22;2548;52.050;11.036;2022-11-15T06:36:48;4.40;99.90
5059;DHT22;2548;52.050;11.036;2022-11-15T06:39:34;4.40;99.90
5059;DHT22;2548;52.050;11.036;2022-11-15T06:42:20;4.30;99.90
5059;DHT22;2548;52.050;11.036;2022-11-15T06:45:08;4.30;99.90
5059;DHT22;2548;52.050;11.036;2022-11-15T06:47:54;4.20;99.90
5059;DHT22;2548;52.050;11.036;2022-11-15T06:50:40;4.20;99.90
5059;DHT22;2548;52.050;11.036;2022-11-15T06:53:27;4.20;99.90
5059;DHT22;2548;52.050;11.036;2022-11-15T06:56:13;4.20;99.90
5059;DHT22;2548;52.050;11.036;2022-11-15T06:58:59;4.30;99.90
5059;DHT22;2548;52.050;11.036;2022-11-15T07:01:47;4.40;99.90
5059;DHT22;2548;52.050;11.036;2022-11-15T07:04:34;4.40;99.90
5059;DHT22;2548;52.050;11.036;2022-11-15T07:07:20;4.40;99.90
5059;DHT22;2548;52.050;11.036;2022-11-15T07:10:08;4.50;99.90
5059;DHT22;2548;52.050;11.036;2022-11-15T07:12:55;4.50;99.90
5059;DHT22;2548;52.050;11.036;2022-11-15T07:15:41;4.50;99.90
5059;DHT22;2548;52.050;11.036;2022-11-15T07:18:28;4.60;99.90
5059;DHT22;2548;52.050;11.036;2022-11-15T07:21:14;4.60;99.90
5059;DHT22;2548;52.050;11.036;2022-11-15T07:24:00;4.70;99.90
5059;DHT22;2548;52.050;11.036;2022-11-15T07:26:46;4.80;99.90
5059;DHT22;2548;52.050;11.036;2022-11-15T07:29:32;4.80;99.90
5059;DHT22;2548;52.050;11.036;2022-11-15T07:32:18;4.90;99.90
5059;DHT22;2548;52.050;11.036;2022-11-15T07:35:06;4.90;99.90
5059;DHT22;2548;52.050;11.036;2022-11-15T07:37:56;5.00;99.90
5059;DHT22;2548;52.050;11.036;2022-11-15T07:40:42;5.00;99.90
5059;DHT22;2548;52.050;11.036;2022-11-15T07:43:28;5.10;99.90
5059;DHT22;2548;52.050;11.036;2022-11-15T07:46:14;5.20;99.90
5059;DHT22;2548;52.050;11.036;2022-11-15T07:49:00;5.30;99.90
5059;DHT22;2548;52.050;11.036;2022-11-15T07:51:48;5.40;99.90
5059;DHT22;2548;52.050;11.036;2022-11-15T07:54:34;5.40;99.90
5059;DHT22;2548;52.050;11.036;2022-11-15T07:57:20;5.50;99.90
5059;DHT22;2548;52.050;11.036;2022-11-15T08:00:07;5.60;99.90
5059;DHT22;2548;52.050;11.036;2022-11-15T08:03:01;5.60;99.90
5059;DHT22;2548;52.050;11.036;2022-11-15T08:05:50;5.60;99.90
5059;DHT22;2548;52.050;11.036;2022-11-15T08:08:37;5.70;99.90
5059;DHT22;2548;52.050;11.036;2022-11-15T08:14:09;5.80;99.90
5059;DHT22;2548;52.050;11.036;2022-11-15T08:16:55;6.00;99.90
5059;DHT22;2548;52.050;11.036;2022-11-15T08:19:41;6.10;99.90
5059;DHT22;2548;52.050;11.036;2022-11-15T08:22:27;6.20;99.90
5059;DHT22;2548;52.050;11.036;2022-11-15T08:25:15;6.40;99.90
5059;DHT22;2548;52.050;11.036;2022-11-15T08:28:04;6.60;99.90
5059;DHT22;2548;52.050;11.036;2022-11-15T08:30:50;6.80;99.90
5059;DHT22;2548;52.050;11.036;2022-11-15T08:33:36;7.00;99.90
5059;DHT22;2548;52.050;11.036;2022-11-15T08:36:22;7.20;99.90
5059;DHT22;2548;52.050;11.036;2022-11-15T08:39:10;7.30;99.90
5059;DHT22;2548;52.050;11.036;2022-11-15T08:41:57;7.60;99.90
5059;DHT22;2548;52.050;11.036;2022-11-15T08:44:44;7.70;99.90
5059;DHT22;2548;52.050;11.036;2022-11-15T08:47:30;7.90;99.90
5059;DHT22;2548;52.050;11.036;2022-11-15T08:50:16;8.00;99.90
5059;DHT22;2548;52.050;11.036;2022-11-15T08:53:05;8.20;99.90
5059;DHT22;2548;52.050;11.036;2022-11-15T08:55:51;8.40;99.90
5059;DHT22;2548;52.050;11.036;2022-11-15T08:58:39;8.50;99.90
5059;DHT22;2548;52.050;11.036;2022-11-15T09:01:25;8.70;99.90
5059;DHT22;2548;52.050;11.036;2022-11-15T09:04:11;8.80;99.90
5059;DHT22;2548;52.050;11.036;2022-11-15T09:06:57;8.80;99.90
5059;DHT22;2548;52.050;11.036;2022-11-15T09:09:43;8.90;99.90
5059;DHT22;2548;52.050;11.036;2022-11-15T09:12:29;8.90;99.90
5059;DHT22;2548;52.050;11.036;2022-11-15T09:15:17;9.00;99.90
5059;DHT22;2548;52.050;11.036;2022-11-15T09:18:04;9.00;99.90
5059;DHT22;2548;52.050;11.036;2022-11-15T09:20:50;9.00;99.90
5059;DHT22;2548;52.050;11.036;2022-11-15T09:23:36;9.00;99.90
5059;DHT22;2548;52.050;11.036;2022-11-15T09:26:22;9.00;99.90
5059;DHT22;2548;52.050;11.036;2022-11-15T09:29:08;9.10;99.90
5059;DHT22;2548;52.050;11.036;2022-11-15T09:31:56;9.10;99.90
5059;DHT22;2548;52.050;11.036;2022-11-15T09:34:41;9.10;99.90
5059;DHT22;2548;52.050;11.036;2022-11-15T09:37:28;9.20;99.90
5059;DHT22;2548;52.050;11.036;2022-11-15T09:40:15;9.30;99.90
5059;DHT22;2548;52.050;11.036;2022-11-15T09:43:35;9.40;99.90
5059;DHT22;2548;52.050;11.036;2022-11-15T09:46:31;9.40;99.90
5059;DHT22;2548;52.050;11.036;2022-11-15T09:49:21;9.40;99.90
5059;DHT22;2548;52.050;11.036;2022-11-15T09:52:04;9.40;99.90
5059;DHT22;2548;52.050;11.036;2022-11-15T09:54:33;9.50;99.90
5059;DHT22;2548;52.050;11.036;2022-11-15T09:57:04;9.60;99.90
5059;DHT22;2548;52.050;11.036;2022-11-15T09:59:48;9.60;99.90
5059;DHT22;2548;52.050;11.036;2022-11-15T10:02:33;9.60;99.90
5059;DHT22;2548;52.050;11.036;2022-11-15T10:05:09;9.70;99.90
5059;DHT22;2548;52.050;11.036;2022-11-15T10:07:44;9.80;99.90
5059;DHT22;2548;52.050;11.036;2022-11-15T10:10:17;9.90;99.90
5059;DHT22;2548;52.050;11.036;2022-11-15T10:12:48;10.00;99.90
5059;DHT22;2548;52.050;11.036;2022-11-15T10:15:18;10.00;99.90
5059;DHT22;2548;52.050;11.036;2022-11-15T10:17:59;10.10;99.90
5059;DHT22;2548;52.050;11.036;2022-11-15T10:20:31;10.20;99.90
5059;DHT22;2548;52.050;11.036;2022-11-15T10:23:06;10.20;99.90
5059;DHT22;2548;52.050;11.036;2022-11-15T10:25:37;10.30;99.90
5059;DHT22;2548;52.050;11.036;2022-11-15T10:28:11;10.30;99.90
5059;DHT22;2548;52.050;11.036;2022-11-15T10:30:42;10.40;99.90
5059;DHT22;2548;52.050;11.036;2022-11-15T10:33:14;10.40;99.90
5059;DHT22;2548;52.050;11.036;2022-11-15T10:35:45;10.50;99.90
5059;DHT22;2548;52.050;11.036;2022-11-15T10:38:13;10.50;99.90
5059;DHT22;2548;52.050;11.036;2022-11-15T10:40:41;10.50;99.90
5059;DHT22;2548;52.050;11.036;2022-11-15T10:43:17;10.50;99.90
5059;DHT22;2548;52.050;11.036;2022-11-15T10:45:46;10.50;99.90
5059;DHT22;2548;52.050;11.036;2022-11-15T10:48:23;10.50;99.90
5059;DHT22;2548;52.050;11.036;2022-11-15T10:50:52;10.50;99.90
5059;DHT22;2548;52.050;11.036;2022-11-15T10:53:40;10.60;99.90
5059;DHT22;2548;52.050;11.036;2022-11-15T10:56:13;10.60;99.90
5059;DHT22;2548;52.050;11.036;2022-11-15T10:58:44;10.60;99.90
5059;DHT22;2548;52.050;11.036;2022-11-15T11:01:19;10.60;99.90
5059;DHT22;2548;52.050;11.036;2022-11-15T11:04:00;10.60;99.90
5059;DHT22;2548;52.050;11.036;2022-11-15T11:06:31;10.60;99.90
5059;DHT22;2548;52.050;11.036;2022-11-15T11:09:23;10.70;99.90
5059;DHT22;2548;52.050;11.036;2022-11-15T11:11:52;10.70;99.90
5059;DHT22;2548;52.050;11.036;2022-11-15T11:14:21;10.80;99.90
5059;DHT22;2548;52.050;11.036;2022-11-15T11:16:51;10.90;99.90
5059;DHT22;2548;52.050;11.036;2022-11-15T11:19:44;11.00;99.90
5059;DHT22;2548;52.050;11.036;2022-11-15T11:22:20;11.20;99.90
5059;DHT22;2548;52.050;11.036;2022-11-15T11:25:04;11.40;99.90
5059;DHT22;2548;52.050;11.036;2022-11-15T11:27:40;11.60;99.90
5059;DHT22;2548;52.050;11.036;2022-11-15T11:30:14;11.80;99.90
5059;DHT22;2548;52.050;11.036;2022-11-15T11:32:52;11.90;99.90
5059;DHT22;2548;52.050;11.036;2022-11-15T11:35:24;11.90;99.90
5059;DHT22;2548;52.050;11.036;2022-11-15T11:38:15;11.90;99.90
5059;DHT22;2548;52.050;11.036;2022-11-15T11:41:03;12.00;99.90
5059;DHT22;2548;52.050;11.036;2022-11-15T11:43:41;12.10;99.90
5059;DHT22;2548;52.050;11.036;2022-11-15T11:49:09;12.40;99.90
5059;DHT22;2548;52.050;11.036;2022-11-15T11:51:40;12.40;99.90
5059;DHT22;2548;52.050;11.036;2022-11-15T11:54:13;12.40;99.90
5059;DHT22;2548;52.050;11.036;2022-11-15T11:56:44;12.40;99.90
5059;DHT22;2548;52.050;11.036;2022-11-15T11:59:18;12.50;99.90
5059;DHT22;2548;52.050;11.036;2022-11-15T12:01:47;12.50;99.90
5059;DHT22;2548;52.050;11.036;2022-11-15T12:04:18;12.60;99.90
5059;DHT22;2548;52.050;11.036;2022-11-15T12:06:50;12.70;99.90
5059;DHT22;2548;52.050;11.036;2022-11-15T12:09:26;12.80;99.90
5059;DHT22;2548;52.050;11.036;2022-11-15T12:12:00;13.00;99.90
5059;DHT22;2548;52.050;11.036;2022-11-15T12:14:33;13.00;99.90
5059;DHT22;2548;52.050;11.036;2022-11-15T12:17:03;13.00;99.90
5059;DHT22;2548;52.050;11.036;2022-11-15T12:19:30;13.10;99.90
5059;DHT22;2548;52.050;11.036;2022-11-15T12:22:02;13.10;99.90
5059;DHT22;2548;52.050;11.036;2022-11-15T12:24:37;13.20;99.90
5059;DHT22;2548;52.050;11.036;2022-11-15T12:27:11;13.20;99.90
5059;DHT22;2548;52.050;11.036;2022-11-15T12:29:43;13.20;99.90
5059;DHT22;2548;52.050;11.036;2022-11-15T12:32:24;13.20;99.90
5059;DHT22;2548;52.050;11.036;2022-11-15T12:34:53;13.20;99.90
5059;DHT22;2548;52.050;11.036;2022-11-15T12:37:52;13.20;99.90
5059;DHT22;2548;52.050;11.036;2022-11-15T12:40:24;13.20;99.90
5059;DHT22;2548;52.050;11.036;2022-11-15T12:46:02;13.20;99.90
5059;DHT22;2548;52.050;11.036;2022-11-15T12:48:50;13.20;99.90
5059;DHT22;2548;52.050;11.036;2022-11-15T12:51:20;13.20;99.90
5059;DHT22;2548;52.050;11.036;2022-11-15T12:53:48;13.30;99.90
5059;DHT22;2548;52.050;11.036;2022-11-15T12:56:21;13.30;99.90
5059;DHT22;2548;52.050;11.036;2022-11-15T12:58:52;13.30;99.90
5059;DHT22;2548;52.050;11.036;2022-11-15T13:04:28;13.20;99.90
5059;DHT22;2548;52.050;11.036;2022-11-15T13:06:58;13.20;99.90
5059;DHT22;2548;52.050;11.036;2022-11-15T13:09:54;13.10;99.90
5059;DHT22;2548;52.050;11.036;2022-11-15T13:12:54;13.00;99.90
5059;DHT22;2548;52.050;11.036;2022-11-15T13:15:53;12.90;99.90
5059;DHT22;2548;52.050;11.036;2022-11-15T13:18:35;12.80;99.90
5059;DHT22;2548;52.050;11.036;2022-11-15T13:21:16;12.60;99.90
5059;DHT22;2548;52.050;11.036;2022-11-15T13:24:02;12.50;99.90
5059;DHT22;2548;52.050;11.036;2022-11-15T13:26:31;12.40;99.90
5059;DHT22;2548;52.050;11.036;2022-11-15T13:29:00;12.30;99.90
5059;DHT22;2548;52.050;11.036;2022-11-15T13:31:35;12.20;99.90
5059;DHT22;2548;52.050;11.036;2022-11-15T13:34:21;12.20;99.90
5059;DHT22;2548;52.050;11.036;2022-11-15T13:36:49;12.10;99.90
5059;DHT22;2548;52.050;11.036;2022-11-15T13:39:26;12.10;99.90
5059;DHT22;2548;52.050;11.036;2022-11-15T13:41:53;12.00;99.90
5059;DHT22;2548;52.050;11.036;2022-11-15T13:44:25;12.00;99.90
5059;DHT22;2548;52.050;11.036;2022-11-15T13:47:03;12.00;99.90
5059;DHT22;2548;52.050;11.036;2022-11-15T13:49:32;11.90;99.90
5059;DHT22;2548;52.050;11.036;2022-11-15T13:52:04;11.80;99.90
5059;DHT22;2548;52.050;11.036;2022-11-15T13:54:34;11.70;99.90
5059;DHT22;2548;52.050;11.036;2022-11-15T13:57:04;11.60;99.90
5059;DHT22;2548;52.050;11.036;2022-11-15T13:59:35;11.60;99.90
5059;DHT22;2548;52.050;11.036;2022-11-15T14:02:12;11.50;99.90
5059;DHT22;2548;52.050;11.036;2022-11-15T14:04:46;11.50;99.90
5059;DHT22;2548;52.050;11.036;2022-11-15T14:07:17;11.50;99.90
5059;DHT22;2548;52.050;11.036;2022-11-15T14:09:46;11.50;99.90
5059;DHT22;2548;52.050;11.036;2022-11-15T14:12:29;11.40;99.90
5059;DHT22;2548;52.050;11.036;2022-11-15T14:14:59;11.40;99.90
5059;DHT22;2548;52.050;11.036;2022-11-15T14:17:36;11.40;99.90
5059;DHT22;2548;52.050;11.036;2022-11-15T14:20:24;11.40;99.90
5059;DHT22;2548;52.050;11.036;2022-11-15T14:22:54;11.40;99.90
5059;DHT22;2548;52.050;11.036;2022-11-15T14:25:22;11.40;99.90
5059;DHT22;2548;52.050;11.036;2022-11-15T14:28:11;11.40;99.90
5059;DHT22;2548;52.050;11.036;2022-11-15T14:30:41;11.40;99.90
5059;DHT22;2548;52.050;11.036;2022-11-15T14:33:28;11.40;99.90
5059;DHT22;2548;52.050;11.036;2022-11-15T14:35:57;11.40;99.90
5059;DHT22;2548;52.050;11.036;2022-11-15T14:38:25;11.40;99.90
5059;DHT22;2548;52.050;11.036;2022-11-15T14:40:54;11.30;99.90
5059;DHT22;2548;52.050;11.036;2022-11-15T14:43:23;11.30;99.90
5059;DHT22;2548;52.050;11.036;2022-11-15T14:45:51;11.20;99.90
5059;DHT22;2548;52.050;11.036;2022-11-15T14:48:19;11.30;99.90
5059;DHT22;2548;52.050;11.036;2022-11-15T14:50:46;11.20;99.90
5059;DHT22;2548;52.050;11.036;2022-11-15T14:53:15;11.20;99.90
5059;DHT22;2548;52.050;11.036;2022-11-15T14:55:43;11.10;99.90
5059;DHT22;2548;52.050;11.036;2022-11-15T14:58:11;11.10;99.90
5059;DHT22;2548;52.050;11.036;2022-11-15T15:00:39;11.10;99.90
5059;DHT22;2548;52.050;11.036;2022-11-15T15:03:09;11.00;99.90
5059;DHT22;2548;52.050;11.036;2022-11-15T15:05:39;11.00;99.90
5059;DHT22;2548;52.050;11.036;2022-11-15T15:08:07;10.90;99.90
5059;DHT22;2548;52.050;11.036;2022-11-15T15:10:36;10.80;99.90
5059;DHT22;2548;52.050;11.036;2022-11-15T15:13:05;10.80;99.90
5059;DHT22;2548;52.050;11.036;2022-11-15T15:15:34;10.70;99.90
5059;DHT22;2548;52.050;11.036;2022-11-15T15:18:02;10.70;99.90
5059;DHT22;2548;52.050;11.036;2022-11-15T15:20:32;10.70;99.90
5059;DHT22;2548;52.050;11.036;2022-11-15T15:22:59;10.70;99.90
5059;DHT22;2548;52.050;11.036;2022-11-15T15:25:28;10.70;99.90
5059;DHT22;2548;52.050;11.036;2022-11-15T15:27:58;10.60;99.90
5059;DHT22;2548;52.050;11.036;2022-11-15T15:30:28;10.70;99.90
5059;DHT22;2548;52.050;11.036;2022-11-15T15:32:56;10.70;99.90
5059;DHT22;2548;52.050;11.036;2022-11-15T15:35:27;10.70;99.90
5059;DHT22;2548;52.050;11.036;2022-11-15T15:37:57;10.70;99.90
5059;DHT22;2548;52.050;11.036;2022-11-15T15:40:27;10.60;99.90
5059;DHT22;2548;52.050;11.036;2022-11-15T15:42:55;10.50;99.90
5059;DHT22;2548;52.050;11.036;2022-11-15T15:45:22;10.50;99.90
5059;DHT22;2548;52.050;11.036;2022-11-15T15:47:53;10.50;99.90
5059;DHT22;2548;52.050;11.036;2022-11-15T15:50:23;10.50;99.90
5059;DHT22;2548;52.050;11.036;2022-11-15T15:52:52;10.50;99.90
5059;DHT22;2548;52.050;11.036;2022-11-15T15:55:22;10.50;99.90
5059;DHT22;2548;52.050;11.036;2022-11-15T15:57:51;10.40;99.90
5059;DHT22;2548;52.050;11.036;2022-11-15T16:00:21;10.40;99.90
5059;DHT22;2548;52.050;11.036;2022-11-15T16:02:52;10.40;99.90
5059;DHT22;2548;52.050;11.036;2022-11-15T16:05:21;10.40;99.90
5059;DHT22;2548;52.050;11.036;2022-11-15T16:07:50;10.40;99.90
5059;DHT22;2548;52.050;11.036;2022-11-15T16:10:25;10.40;99.90
5059;DHT22;2548;52.050;11.036;2022-11-15T16:12:54;10.40;99.90
5059;DHT22;2548;52.050;11.036;2022-11-15T16:15:24;10.40;99.90
5059;DHT22;2548;52.050;11.036;2022-11-15T16:17:54;10.40;99.90
5059;DHT22;2548;52.050;11.036;2022-11-15T16:20:35;10.40;99.90
5059;DHT22;2548;52.050;11.036;2022-11-15T16:23:06;10.40;99.90
5059;DHT22;2548;52.050;11.036;2022-11-15T16:25:39;10.40;99.90
5059;DHT22;2548;52.050;11.036;2022-11-15T16:28:19;10.40;99.90
5059;DHT22;2548;52.050;11.036;2022-11-15T16:30:58;10.30;99.90
5059;DHT22;2548;52.050;11.036;2022-11-15T16:33:27;10.30;99.90
5059;DHT22;2548;52.050;11.036;2022-11-15T16:35:56;10.30;99.90
5059;DHT22;2548;52.050;11.036;2022-11-15T16:38:24;10.20;99.90
5059;DHT22;2548;52.050;11.036;2022-11-15T16:40:55;10.20;99.90
5059;DHT22;2548;52.050;11.036;2022-11-15T16:43:23;10.20;99.90
5059;DHT22;2548;52.050;11.036;2022-11-15T16:45:52;10.20;99.90
5059;DHT22;2548;52.050;11.036;2022-11-15T16:48:23;10.20;99.90
5059;DHT22;2548;52.050;11.036;2022-11-15T16:50:55;10.20;99.90
5059;DHT22;2548;52.050;11.036;2022-11-15T16:53:25;10.20;99.90
5059;DHT22;2548;52.050;11.036;2022-11-15T16:55:56;10.10;99.90
5059;DHT22;2548;52.050;11.036;2022-11-15T16:58:25;10.10;99.90
5059;DHT22;2548;52.050;11.036;2022-11-15T17:00:55;10.10;99.90
5059;DHT22;2548;52.050;11.036;2022-11-15T17:03:24;10.10;99.90
5059;DHT22;2548;52.050;11.036;2022-11-15T17:05:57;10.00;99.90
5059;DHT22;2548;52.050;11.036;2022-11-15T17:08:26;10.00;99.90
5059;DHT22;2548;52.050;11.036;2022-11-15T17:10:56;10.00;99.90
5059;DHT22;2548;52.050;11.036;2022-11-15T17:13:25;10.00;99.90
5059;DHT22;2548;52.050;11.036;2022-11-15T17:16:03;9.90;99.90
5059;DHT22;2548;52.050;11.036;2022-11-15T17:18:32;9.90;99.90
5059;DHT22;2548;52.050;11.036;2022-11-15T17:21:05;9.90;99.90
5059;DHT22;2548;52.050;11.036;2022-11-15T17:23:34;9.90;99.90
5059;DHT22;2548;52.050;11.036;2022-11-15T17:26:05;9.90;99.90
5059;DHT22;2548;52.050;11.036;2022-11-15T17:28:34;9.90;99.90
5059;DHT22;2548;52.050;11.036;2022-11-15T17:31:06;9.80;99.90
5059;DHT22;2548;52.050;11.036;2022-11-15T17:33:36;9.80;99.90
5059;DHT22;2548;52.050;11.036;2022-11-15T17:36:09;9.80;99.90
5059;DHT22;2548;52.050;11.036;2022-11-15T17:38:40;9.80;99.90
5059;DHT22;2548;52.050;11.036;2022-11-15T17:41:13;9.80;99.90